Time;durP1;ratioP1;P1;durP2;ratioP2;P2;SDS_P1;SDS_P2;PMS_P1;PMS_P2;Temp;Humidity;BMP_temperature;BMP_pressure;BME280_temperature;BME280_humidity;BME280_pressure;Samples;Min_cycle;Max_cycle;Signal;HPM_P1;HPM_P2
2022/01/03 00:01:40;;;;;;;;;;;;;;;24.40;66.91;97219.25;625918;226;62729;-69
2022/01/03 00:04:09;;;;;;;;;;;;;;;24.40;67.40;97214.67;625880;226;64895;-69
2022/01/03 00:06:38;;;;;;;;;;;;;;;24.40;67.08;97225.41;625983;226;64788;-69
2022/01/03 00:09:07;;;;;;;;;;;;;;;24.40;66.98;97220.04;625948;226;65484;-69
2022/01/03 00:11:36;;;;;;;;;;;;;;;24.40;66.58;97220.04;625924;226;64884;-69
2022/01/03 00:14:04;;;;;;;;;;;;;;;24.40;66.64;97228.09;625955;226;66792;-69
2022/01/03 00:16:33;;;;;;;;;;;;;;;24.41;66.61;97227.00;625923;226;64863;-69
2022/01/03 00:19:02;;;;;;;;;;;;;;;24.41;67.00;97215.47;625947;226;66776;-69
2022/01/03 00:21:31;;;;;;;;;;;;;;;24.39;66.91;97215.77;625960;226;66619;-69
2022/01/03 00:24:07;;;;;;;;;;;;;;;24.40;67.59;97213.88;625660;226;64931;-69
2022/01/03 00:26:35;;;;;;;;;;;;;;;24.38;66.85;97206.88;625645;225;67115;-69
2022/01/03 00:29:07;;;;;;;;;;;;;;;24.38;67.00;97204.20;625920;226;66867;-70
2022/01/03 00:31:36;;;;;;;;;;;;;;;24.38;67.25;97192.66;625952;226;65044;-69
2022/01/03 00:34:05;;;;;;;;;;;;;;;24.38;66.99;97196.14;625705;226;64611;-70
2022/01/03 00:36:33;;;;;;;;;;;;;;;24.38;67.20;97184.60;625942;226;66818;-70
2022/01/03 00:39:01;;;;;;;;;;;;;;;24.38;66.52;97180.02;625889;226;65199;-75
2022/01/03 00:41:28;;;;;;;;;;;;;;;24.38;68.00;97179.23;625938;226;67234;-73
2022/01/03 00:43:56;;;;;;;;;;;;;;;24.38;66.79;97173.86;625907;226;64755;-73
2022/01/03 00:46:25;;;;;;;;;;;;;;;24.38;67.59;97179.23;625907;226;63710;-73
2022/01/03 00:48:54;;;;;;;;;;;;;;;24.38;66.47;97168.48;625960;226;67069;-74
2022/01/03 00:51:23;;;;;;;;;;;;;;;24.38;66.93;97168.48;625860;226;67045;-74
2022/01/03 00:53:51;;;;;;;;;;;;;;;24.37;67.37;97164.22;625898;224;64842;-74
2022/01/03 00:56:20;;;;;;;;;;;;;;;24.36;66.56;97165.28;625881;226;64879;-74
2022/01/03 00:58:49;;;;;;;;;;;;;;;24.36;66.50;97162.59;625831;226;66908;-75
2022/01/03 01:01:18;;;;;;;;;;;;;;;24.35;67.35;97155.64;625872;225;65975;-68
2022/01/03 01:03:47;;;;;;;;;;;;;;;24.34;67.52;97146.00;625920;226;67018;-68
2022/01/03 01:06:17;;;;;;;;;;;;;;;24.35;66.86;97145.69;625923;226;67076;-69
2022/01/03 01:08:45;;;;;;;;;;;;;;;24.35;67.89;97136.84;625906;226;65100;-69
2022/01/03 01:11:13;;;;;;;;;;;;;;;24.34;67.51;97127.98;625900;226;67074;-68
2022/01/03 01:13:43;;;;;;;;;;;;;;;24.33;67.89;97126.38;625957;226;67144;-69
2022/01/03 01:16:10;;;;;;;;;;;;;;;24.33;66.58;97115.62;625910;226;62499;-68
2022/01/03 01:18:40;;;;;;;;;;;;;;;24.33;67.82;97106.78;625784;226;45814;-68
2022/01/03 01:21:07;;;;;;;;;;;;;;;24.32;67.00;97094.45;625919;226;64800;-68
2022/01/03 01:23:40;;;;;;;;;;;;;;;24.31;67.43;97085.59;625929;226;64897;-68
2022/01/03 01:28:51;;;;;;;;;;;;;;;24.31;67.51;97088.28;625948;226;66889;-67
2022/01/03 01:31:20;;;;;;;;;;;;;;;24.32;68.24;97076.44;625917;226;62637;-67
2022/01/03 01:33:49;;;;;;;;;;;;;;;24.31;66.99;97074.86;625605;226;67478;-68
2022/01/03 01:36:17;;;;;;;;;;;;;;;24.29;69.14;97073.55;625904;225;67191;-68
2022/01/03 01:38:46;;;;;;;;;;;;;;;24.29;68.26;97078.92;625891;226;62881;-68
2022/01/03 01:41:14;;;;;;;;;;;;;;;24.29;69.11;97078.92;625816;226;67821;-68
2022/01/03 01:43:45;;;;;;;;;;;;;;;24.27;68.49;97071.14;625723;224;45296;-68
2022/01/03 01:46:16;;;;;;;;;;;;;;;24.27;67.94;97073.83;625909;226;64925;-68
2022/01/03 01:48:45;;;;;;;;;;;;;;;24.27;69.34;97081.09;625890;226;67251;-68
2022/01/03 01:51:14;;;;;;;;;;;;;;;24.27;68.69;97086.45;625377;226;67445;-74
2022/01/03 01:53:43;;;;;;;;;;;;;;;24.26;68.24;97085.67;624761;227;63025;-74
2022/01/03 01:56:16;;;;;;;;;;;;;;;24.25;69.40;97089.42;624800;227;67073;-74
2022/01/03 01:59:00;;;;;;;;;;;;;;;24.24;69.45;97081.67;624586;226;64415;-75
2022/01/03 02:01:29;;;;;;;;;;;;;;;24.24;69.52;97082.47;624798;227;64792;-74
2022/01/03 02:03:58;;;;;;;;;;;;;;;24.24;69.26;97081.67;624617;226;65099;-74
2022/01/03 02:06:29;;;;;;;;;;;;;;;24.23;69.97;97077.41;624848;226;49270;-74
2022/01/03 02:09:05;;;;;;;;;;;;;;;24.21;69.47;97066.94;624584;226;65511;-74
2022/01/03 02:11:34;;;;;;;;;;;;;;;24.24;69.27;97076.30;624842;227;67056;-74
2022/01/03 02:14:03;;;;;;;;;;;;;;;24.22;68.92;97078.47;624571;226;66909;-74
2022/01/03 02:16:33;;;;;;;;;;;;;;;24.23;68.85;97085.46;624790;227;62958;-74
2022/01/03 02:19:00;;;;;;;;;;;;;;;24.20;68.74;97073.41;624759;227;64840;-74
2022/01/03 02:21:28;;;;;;;;;;;;;;;24.21;69.61;97074.20;624796;227;67296;-74
2022/01/03 02:23:56;;;;;;;;;;;;;;;24.19;71.20;97073.69;624841;227;64791;-74
2022/01/03 02:26:23;;;;;;;;;;;;;;;24.19;71.36;97071.00;624853;227;64439;-75
2022/01/03 02:28:51;;;;;;;;;;;;;;;24.18;69.26;97066.73;624767;227;67289;-74
2022/01/03 02:31:19;;;;;;;;;;;;;;;24.18;69.81;97061.36;624792;227;65642;-74
2022/01/03 02:33:47;;;;;;;;;;;;;;;24.18;69.88;97055.98;624747;227;67586;-74
2022/01/03 02:36:17;;;;;;;;;;;;;;;24.17;70.95;97059.75;624789;227;66915;-74
2022/01/03 02:38:44;;;;;;;;;;;;;;;24.15;69.92;97055.47;624870;227;62721;-74
2022/01/03 02:41:12;;;;;;;;;;;;;;;24.14;68.62;97045.83;624790;227;67037;-74
2022/01/03 02:43:40;;;;;;;;;;;;;;;24.15;67.31;97042.05;624763;227;67446;-74
2022/01/03 02:46:08;;;;;;;;;;;;;;;24.17;68.54;97041.73;624800;227;62796;-74
2022/01/03 02:48:36;;;;;;;;;;;;;;;24.15;67.33;97042.05;624769;227;68387;-74
2022/01/03 02:51:03;;;;;;;;;;;;;;;24.15;71.28;97025.94;624774;226;64846;-74
2022/01/03 02:53:31;;;;;;;;;;;;;;;24.13;69.55;97020.05;624776;227;64847;-74
2022/01/03 02:55:59;;;;;;;;;;;;;;;24.14;69.71;97016.30;624798;227;65109;-74
2022/01/03 02:58:26;;;;;;;;;;;;;;;24.13;71.51;97005.84;624770;227;64805;-74
2022/01/03 03:00:54;;;;;;;;;;;;;;;24.13;68.22;97000.47;624755;227;64908;-74
2022/01/03 03:03:23;;;;;;;;;;;;;;;24.13;67.26;96993.20;624312;227;46890;-74
2022/01/03 03:05:52;;;;;;;;;;;;;;;24.13;67.45;96990.52;624790;227;67364;-74
2022/01/03 03:08:21;;;;;;;;;;;;;;;24.12;69.53;96988.14;624781;227;62366;-74
2022/01/03 03:10:48;;;;;;;;;;;;;;;24.13;68.81;96984.36;624795;227;67097;-74
2022/01/03 03:13:16;;;;;;;;;;;;;;;24.10;68.41;96979.58;624760;227;64886;-74
2022/01/03 03:15:44;;;;;;;;;;;;;;;24.10;67.85;96985.73;624827;227;65014;-75
2022/01/03 03:18:12;;;;;;;;;;;;;;;24.11;67.39;96983.84;624767;227;67045;-74
2022/01/03 03:20:43;;;;;;;;;;;;;;;24.10;67.78;96979.58;624801;227;67099;-74
2022/01/03 03:23:09;;;;;;;;;;;;;;;24.10;67.49;96980.37;624732;226;64978;-74
2022/01/03 03:25:37;;;;;;;;;;;;;;;24.10;67.12;96975.00;624770;227;66948;-74
2022/01/03 03:28:11;;;;;;;;;;;;;;;24.10;67.07;96984.95;624814;226;47072;-74
2022/01/03 03:30:40;;;;;;;;;;;;;;;24.09;67.25;96978.78;624489;226;65933;-74
2022/01/03 03:33:10;;;;;;;;;;;;;;;24.09;68.25;96976.10;624756;227;67532;-74
2022/01/03 03:35:39;;;;;;;;;;;;;;;24.09;67.37;96967.22;624813;227;67083;-74
2022/01/03 03:38:07;;;;;;;;;;;;;;;24.08;68.04;96965.64;624759;227;62801;-74
2022/01/03 03:40:35;;;;;;;;;;;;;;;24.08;67.02;96958.38;624752;227;67172;-68
2022/01/03 03:43:02;;;;;;;;;;;;;;;24.08;68.25;96960.27;624812;227;68125;-68
2022/01/03 03:45:31;;;;;;;;;;;;;;;24.07;67.16;96954.11;624758;227;65583;-68
2022/01/03 03:47:58;;;;;;;;;;;;;;;24.07;67.06;96959.48;624797;227;67035;-68
2022/01/03 03:50:26;;;;;;;;;;;;;;;24.07;68.67;96953.31;624793;226;66927;-68
2022/01/03 03:52:54;;;;;;;;;;;;;;;24.06;67.31;96962.44;625880;226;62778;-68
2022/01/03 03:55:22;;;;;;;;;;;;;;;24.06;67.18;96963.27;625966;226;64883;-68
2022/01/03 03:57:49;;;;;;;;;;;;;;;24.05;67.77;96958.17;625965;226;67886;-68
2022/01/03 04:00:19;;;;;;;;;;;;;;;24.04;67.21;96957.38;625924;225;65506;-69
2022/01/03 04:02:49;;;;;;;;;;;;;;;24.05;67.58;96963.55;625952;225;43789;-68
2022/01/03 04:05:17;;;;;;;;;;;;;;;24.03;71.14;96965.71;625905;226;67177;-68
2022/01/03 04:07:46;;;;;;;;;;;;;;;24.00;70.69;96959.04;625891;226;65098;-68
2022/01/03 04:10:15;;;;;;;;;;;;;;;23.99;67.51;96965.51;625945;226;65282;-68
2022/01/03 04:12:44;;;;;;;;;;;;;;;24.02;67.92;96962.23;625921;226;65157;-68
2022/01/03 04:15:12;;;;;;;;;;;;;;;24.02;67.37;96964.12;625902;226;65036;-68
2022/01/03 04:17:39;;;;;;;;;;;;;;;24.01;68.58;96968.70;625951;226;67209;-68
2022/01/03 04:20:08;;;;;;;;;;;;;;;24.01;70.56;96962.52;625888;226;64594;-68
2022/01/03 04:22:35;;;;;;;;;;;;;;;23.97;67.51;96967.68;625980;226;64989;-68
2022/01/03 04:25:03;;;;;;;;;;;;;;;24.00;67.42;96968.98;625950;226;64443;-68
2022/01/03 04:27:32;;;;;;;;;;;;;;;24.00;68.00;96967.09;621354;226;68156;-68
2022/01/03 04:29:59;;;;;;;;;;;;;;;23.99;67.40;96964.72;625918;226;65045;-68
2022/01/03 04:32:27;;;;;;;;;;;;;;;23.99;67.75;96968.19;625901;226;64704;-68
2022/01/03 04:34:54;;;;;;;;;;;;;;;23.99;67.61;96970.88;626005;226;65281;-68
2022/01/03 04:37:22;;;;;;;;;;;;;;;23.97;69.00;96969.57;625928;226;63716;-68
2022/01/03 04:39:50;;;;;;;;;;;;;;;23.96;67.69;96990.25;625930;226;67464;-68
2022/01/03 04:42:18;;;;;;;;;;;;;;;23.96;68.90;96995.62;625951;226;66758;-74
2022/01/03 04:44:45;;;;;;;;;;;;;;;23.95;70.64;96982.48;625926;224;63704;-75
2022/01/03 04:47:13;;;;;;;;;;;;;;;23.94;70.03;96981.69;625942;226;66908;-74
2022/01/03 04:49:41;;;;;;;;;;;;;;;23.94;68.23;96981.69;625979;226;64455;-74
2022/01/03 04:52:09;;;;;;;;;;;;;;;23.95;69.16;96975.22;625006;226;65423;-74
2022/01/03 04:54:37;;;;;;;;;;;;;;;23.92;68.69;96978.48;624737;227;64625;-74
2022/01/03 04:57:04;;;;;;;;;;;;;;;23.90;70.12;96969.95;624753;227;65144;-68
2022/01/03 04:59:32;;;;;;;;;;;;;;;23.88;68.98;96959.48;624784;227;66178;-68
2022/01/03 05:02:03;;;;;;;;;;;;;;;23.88;70.88;96953.33;624807;227;66926;-68
2022/01/03 05:04:29;;;;;;;;;;;;;;;23.89;68.57;96963.76;624734;226;65108;-68
2022/01/03 05:06:57;;;;;;;;;;;;;;;23.87;69.45;96965.95;624770;227;64916;-69
2022/01/03 05:09:26;;;;;;;;;;;;;;;23.89;70.37;96962.97;624773;227;67484;-69
2022/01/03 05:11:55;;;;;;;;;;;;;;;23.87;70.85;96965.13;624729;227;67733;-69
2022/01/03 05:14:23;;;;;;;;;;;;;;;23.86;70.12;96952.81;624837;227;66877;-69
2022/01/03 05:16:52;;;;;;;;;;;;;;;23.86;71.02;96964.34;624785;227;63979;-68
2022/01/03 05:19:21;;;;;;;;;;;;;;;23.85;70.30;96954.70;624758;227;64331;-69
2022/01/03 05:21:49;;;;;;;;;;;;;;;23.87;72.30;96963.27;624749;227;65588;-68
2022/01/03 05:24:16;;;;;;;;;;;;;;;23.85;70.20;96962.77;624763;227;67332;-69
2022/01/03 05:26:44;;;;;;;;;;;;;;;23.84;72.70;96960.35;624797;227;64865;-69
2022/01/03 05:29:12;;;;;;;;;;;;;;;23.83;72.23;96953.41;624728;227;65585;-68
2022/01/03 05:31:40;;;;;;;;;;;;;;;23.81;69.09;96953.68;624772;227;66938;-69
2022/01/03 05:34:08;;;;;;;;;;;;;;;23.81;72.37;96952.89;624772;227;64698;-69
2022/01/03 05:36:35;;;;;;;;;;;;;;;23.81;72.51;96951.00;624749;227;65573;-68
2022/01/03 05:39:03;;;;;;;;;;;;;;;23.81;69.75;96964.41;624851;227;67078;-69
2022/01/03 05:41:32;;;;;;;;;;;;;;;23.82;69.89;96967.92;624805;227;64773;-69
2022/01/03 05:44:00;;;;;;;;;;;;;;;23.81;70.42;96971.67;624791;227;62297;-69
2022/01/03 05:46:28;;;;;;;;;;;;;;;23.80;71.06;96980.82;624802;227;67517;-68
2022/01/03 05:48:56;;;;;;;;;;;;;;;23.80;70.90;96978.93;624785;227;64419;-68
2022/01/03 05:51:24;;;;;;;;;;;;;;;23.79;70.88;96976.52;625250;226;65421;-68
2022/01/03 05:53:55;;;;;;;;;;;;;;;23.77;70.12;96963.41;625900;226;66987;-68
2022/01/03 05:56:24;;;;;;;;;;;;;;;23.79;71.71;96963.11;625932;226;66980;-68
2022/01/03 05:58:52;;;;;;;;;;;;;;;23.77;70.55;96960.73;625895;226;62349;-68
2022/01/03 06:01:21;;;;;;;;;;;;;;;23.77;72.41;96965.30;625892;226;64516;-68
2022/01/03 06:03:57;;;;;;;;;;;;;;;23.75;72.59;96965.58;625987;226;64574;-68
2022/01/03 06:06:30;;;;;;;;;;;;;;;23.74;72.03;96952.47;625702;226;63685;-68
2022/01/03 06:08:47;;;;;;;;;;;;;;;23.74;71.71;96955.95;625569;226;64454;-68
2022/01/03 06:11:15;;;;;;;;;;;;;;;23.74;72.45;96964.00;625919;226;67203;-68
2022/01/03 06:13:42;;;;;;;;;;;;;;;23.74;72.98;96966.68;625953;226;64860;-68
2022/01/03 06:16:10;;;;;;;;;;;;;;;23.73;72.38;96978.48;625925;226;67964;-68
2022/01/03 06:18:38;;;;;;;;;;;;;;;23.73;72.36;96973.11;625941;226;66920;-70
2022/01/03 06:21:07;;;;;;;;;;;;;;;23.73;72.56;96983.05;625968;225;42467;-68
2022/01/03 06:23:40;;;;;;;;;;;;;;;23.74;72.88;96985.46;625859;226;45649;-68
2022/01/03 06:26:07;;;;;;;;;;;;;;;23.72;72.21;96971.53;625954;226;64888;-68
2022/01/03 06:28:43;;;;;;;;;;;;;;;23.73;72.47;96975.80;625696;226;45216;-68
2022/01/03 06:31:12;;;;;;;;;;;;;;;23.74;72.29;96980.09;625873;224;67313;-68
2022/01/03 06:33:40;;;;;;;;;;;;;;;23.73;71.72;96975.00;625968;226;67469;-68
2022/01/03 06:36:08;;;;;;;;;;;;;;;23.73;72.70;96977.69;625929;226;62712;-68
2022/01/03 06:38:36;;;;;;;;;;;;;;;23.72;72.22;96984.16;625922;226;67769;-68
2022/01/03 06:41:05;;;;;;;;;;;;;;;23.73;72.65;96983.84;625892;226;66783;-69
2022/01/03 06:43:32;;;;;;;;;;;;;;;23.72;72.34;96984.95;625855;226;62742;-68
2022/01/03 06:46:00;;;;;;;;;;;;;;;23.70;72.42;96982.51;625980;224;67060;-69
2022/01/03 06:48:28;;;;;;;;;;;;;;;23.72;72.67;96992.99;625888;226;66890;-68
2022/01/03 06:50:56;;;;;;;;;;;;;;;23.70;72.98;96989.77;625562;226;63945;-68
2022/01/03 06:53:23;;;;;;;;;;;;;;;23.69;72.09;96997.02;624742;227;67027;-57
2022/01/03 06:55:51;;;;;;;;;;;;;;;23.68;72.98;96999.98;624770;227;67595;-60
2022/01/03 06:58:18;;;;;;;;;;;;;;;23.67;71.70;97001.08;624761;227;64794;-68
2022/01/03 07:00:47;;;;;;;;;;;;;;;23.66;70.62;96997.60;624032;227;67713;-68
2022/01/03 07:03:15;;;;;;;;;;;;;;;23.62;69.60;96999.25;624729;227;67749;-65
2022/01/03 07:05:43;;;;;;;;;;;;;;;23.64;66.64;96994.40;624753;227;65011;-71
2022/01/03 07:08:10;;;;;;;;;;;;;;;23.73;66.32;97007.20;624670;227;67225;-69
2022/01/03 07:10:38;;;;;;;;;;;;;;;23.77;67.19;97008.23;624499;227;64635;-69
2022/01/03 07:13:05;;;;;;;;;;;;;;;23.79;66.95;97003.36;624750;227;62691;-69
2022/01/03 07:21:03;;;;;;;;;;;;;;;23.82;67.82;96984.81;624700;227;64954;-62
2022/01/03 07:23:31;;;;;;;;;;;;;;;23.82;68.25;96995.55;624754;227;67046;-60
2022/01/03 07:25:58;;;;;;;;;;;;;;;23.82;67.89;96989.39;624714;227;64918;-60
2022/01/03 07:28:26;;;;;;;;;;;;;;;23.78;67.61;96993.72;624761;227;62920;-61
2022/01/03 07:30:54;;;;;;;;;;;;;;;23.75;66.86;96988.94;624738;227;64894;-69
2022/01/03 07:33:21;;;;;;;;;;;;;;;23.77;66.80;96989.45;620817;227;64953;-71
2022/01/03 07:35:49;;;;;;;;;;;;;;;23.74;66.95;96985.46;617524;229;62884;-71
2022/01/03 07:38:16;;;;;;;;;;;;;;;23.73;67.48;96978.48;617638;229;64962;-71
2022/01/03 07:40:44;;;;;;;;;;;;;;;23.73;66.93;96975.80;617311;229;64819;-71
2022/01/03 07:43:11;;;;;;;;;;;;;;;23.72;67.17;96973.42;617218;229;63016;-71
2022/01/03 07:45:39;;;;;;;;;;;;;;;23.69;67.11;96980.92;617622;229;64578;-72
2022/01/03 07:48:07;;;;;;;;;;;;;;;23.72;67.41;96973.42;617627;229;67008;-73
2022/01/03 07:50:34;;;;;;;;;;;;;;;23.71;67.06;96969.95;617523;229;65287;-74
2022/01/03 07:53:02;;;;;;;;;;;;;;;23.72;67.23;96965.38;618768;229;67247;-72
2022/01/03 07:55:29;;;;;;;;;;;;;;;23.72;67.23;96960.00;618759;229;67047;-68
2022/01/03 07:57:57;;;;;;;;;;;;;;;23.70;66.78;96961.05;618662;229;65098;-72
2022/01/03 08:00:24;;;;;;;;;;;;;;;23.69;66.97;96964.83;618697;229;67179;-71
2022/01/03 08:02:52;;;;;;;;;;;;;;;23.69;68.03;96961.34;618670;229;64856;-71
2022/01/03 08:05:19;;;;;;;;;;;;;;;23.73;66.74;96948.17;618654;229;62923;-71
2022/01/03 08:07:47;;;;;;;;;;;;;;;23.72;66.68;96951.95;618781;229;67216;-70
2022/01/03 08:10:15;;;;;;;;;;;;;;;23.72;65.90;96938.54;618645;229;67146;-72
2022/01/03 08:12:44;;;;;;;;;;;;;;;23.70;66.63;96928.05;618719;229;64985;-75
2022/01/03 08:15:11;;;;;;;;;;;;;;;23.68;66.36;96925.67;618689;229;67133;-72
2022/01/03 08:17:39;;;;;;;;;;;;;;;23.69;66.24;96919.22;618662;229;66863;-73
2022/01/03 08:20:07;;;;;;;;;;;;;;;23.66;67.37;96919.80;618533;229;65080;-72
2022/01/03 08:22:34;;;;;;;;;;;;;;;23.69;67.46;96913.84;618733;227;67269;-72
2022/01/03 08:25:02;;;;;;;;;;;;;;;23.71;66.35;96910.92;618646;229;66897;-72
2022/01/03 08:27:29;;;;;;;;;;;;;;;23.70;66.94;96912.75;618557;229;62753;-72
2022/01/03 08:29:57;;;;;;;;;;;;;;;23.68;66.53;96914.95;618504;229;64866;-71
2022/01/03 08:32:24;;;;;;;;;;;;;;;23.69;67.32;96915.73;618764;229;64955;-73
2022/01/03 08:34:52;;;;;;;;;;;;;;;23.69;67.56;96907.69;618757;229;62753;-68
2022/01/03 08:37:19;;;;;;;;;;;;;;;23.69;67.59;96905.01;618565;229;64594;-70
2022/01/03 08:39:47;;;;;;;;;;;;;;;23.69;67.35;96905.80;618648;229;64918;-70
2022/01/03 08:42:14;;;;;;;;;;;;;;;23.67;67.36;96902.60;618721;229;62799;-71
2022/01/03 08:44:42;;;;;;;;;;;;;;;23.66;65.77;96895.66;618790;229;64851;-68
2022/01/03 08:47:09;;;;;;;;;;;;;;;23.69;67.26;96895.06;618733;229;64811;-73
2022/01/03 08:49:37;;;;;;;;;;;;;;;23.69;66.50;96897.75;618765;229;62704;-74
2022/01/03 08:52:05;;;;;;;;;;;;;;;23.66;67.19;96901.02;616237;229;64582;-72
2022/01/03 08:54:33;;;;;;;;;;;;;;;23.67;67.90;96905.28;615181;228;66966;-69
2022/01/03 08:57:01;;;;;;;;;;;;;;;23.65;66.96;96902.12;615385;230;64952;-67
2022/01/03 08:59:28;;;;;;;;;;;;;;;23.66;68.32;96895.66;615327;230;66697;-67
2022/01/03 09:01:56;;;;;;;;;;;;;;;23.66;67.65;96901.02;615151;230;66860;-68
2022/01/03 09:04:23;;;;;;;;;;;;;;;23.67;66.64;96899.92;615305;230;62730;-70
2022/01/03 09:06:52;;;;;;;;;;;;;;;23.67;67.78;96894.55;615324;230;65796;-72
2022/01/03 09:09:20;;;;;;;;;;;;;;;23.66;68.15;96894.86;615098;230;67225;-70
2022/01/03 09:11:47;;;;;;;;;;;;;;;23.65;68.37;96891.39;615312;230;66008;-71
2022/01/03 09:14:15;;;;;;;;;;;;;;;23.66;68.37;96874.19;615140;230;67063;-75
2022/01/03 09:16:43;;;;;;;;;;;;;;;23.67;67.27;96864.25;615307;230;64441;-71
2022/01/03 09:19:10;;;;;;;;;;;;;;;23.67;68.29;96865.04;615237;230;62939;-70
2022/01/03 09:21:38;;;;;;;;;;;;;;;23.67;68.12;96869.62;615330;230;64559;-69
2022/01/03 09:24:20;;;;;;;;;;;;;;;23.68;67.95;96850.55;615304;228;66887;-69
2022/01/03 09:29:20;;;;;;;;;;;;;;;23.67;68.45;96842.78;615270;230;67119;-69
2022/01/03 09:31:47;;;;;;;;;;;;;;;23.68;68.41;96852.42;615297;228;66896;-68
2022/01/03 09:34:15;;;;;;;;;;;;;;;23.72;66.69;96850.79;615215;230;64836;-68
2022/01/03 09:36:42;;;;;;;;;;;;;;;23.72;66.17;96844.63;615246;230;67062;-68
2022/01/03 09:39:10;;;;;;;;;;;;;;;23.67;67.78;96835.53;615014;230;67070;-67
2022/01/03 09:41:39;;;;;;;;;;;;;;;23.66;67.66;96823.22;614435;230;65024;-68
2022/01/03 09:44:11;;;;;;;;;;;;;;;23.65;67.23;96823.50;615045;230;67170;-67
2022/01/03 09:46:39;;;;;;;;;;;;;;;23.64;67.35;96821.91;615247;230;66843;-68
2022/01/03 09:49:07;;;;;;;;;;;;;;;23.64;67.73;96806.61;615082;230;64967;-68
2022/01/03 09:51:35;;;;;;;;;;;;;;;23.63;67.75;96807.70;615277;229;67242;-68
2022/01/03 09:54:10;;;;;;;;;;;;;;;23.66;67.56;96807.12;614858;230;66056;-68
2022/01/03 09:56:38;;;;;;;;;;;;;;;23.68;67.68;96806.81;615222;230;63081;-68
2022/01/03 09:59:06;;;;;;;;;;;;;;;23.71;67.74;96806.28;615091;230;68219;-68
2022/01/03 10:01:34;;;;;;;;;;;;;;;23.75;67.81;96801.91;615271;230;66874;-68
2022/01/03 10:04:02;;;;;;;;;;;;;;;23.73;67.99;96804.08;615295;228;63014;-68
2022/01/03 10:06:31;;;;;;;;;;;;;;;23.71;67.39;96798.23;615328;228;67111;-67
2022/01/03 10:09:00;;;;;;;;;;;;;;;23.72;67.32;96807.86;615238;230;67100;-70
2022/01/03 10:11:27;;;;;;;;;;;;;;;23.74;64.85;96799.53;615327;230;65062;-70
2022/01/03 10:13:55;;;;;;;;;;;;;;;23.82;65.43;96796.97;615272;230;66876;-70
2022/01/03 10:16:22;;;;;;;;;;;;;;;23.83;66.37;96793.18;615319;230;67060;-71
2022/01/03 10:18:50;;;;;;;;;;;;;;;23.83;67.56;96787.02;615280;230;62902;-72
2022/01/03 10:21:19;;;;;;;;;;;;;;;23.81;67.22;96773.09;615340;230;65189;-70
2022/01/03 10:23:58;;;;;;;;;;;;;;;23.81;67.50;96770.41;611137;230;66751;-71
2022/01/03 10:26:22;;;;;;;;;;;;;;;23.80;67.55;96772.31;615142;230;65111;-70
2022/01/03 10:28:51;;;;;;;;;;;;;;;23.84;67.16;96769.82;615335;228;67189;-71
2022/01/03 10:31:20;;;;;;;;;;;;;;;23.83;67.48;96762.88;615396;230;64853;-70
2022/01/03 10:33:48;;;;;;;;;;;;;;;23.84;67.68;96761.77;615222;230;65024;-70
2022/01/03 10:36:29;;;;;;;;;;;;;;;23.84;67.44;96759.09;615332;230;67162;-71
2022/01/03 10:38:58;;;;;;;;;;;;;;;23.88;67.67;96763.58;615338;230;64969;-71
2022/01/03 10:41:26;;;;;;;;;;;;;;;23.88;67.74;96760.89;615267;230;63895;-70
2022/01/03 10:43:55;;;;;;;;;;;;;;;23.89;68.08;96761.69;615285;230;65035;-68
2022/01/03 10:46:23;;;;;;;;;;;;;;;;;;615199;230;65146;-70
2022/01/03 10:48:51;;;;;;;;;;;;;;;23.87;65.26;96751.27;615119;230;65828;-75
2022/01/03 10:51:23;;;;;;;;;;;;;;;23.87;66.85;96745.08;616709;229;67861;-69
2022/01/03 10:53:53;;;;;;;;;;;;;;;23.84;67.42;96745.67;619003;226;64884;-70
2022/01/03 10:56:27;;;;;;;;;;;;;;;23.83;66.52;96757.50;619890;226;65046;-70
2022/01/03 10:58:56;;;;;;;;;;;;;;;23.81;66.81;96752.42;618748;229;67094;-70
2022/01/03 11:01:25;;;;;;;;;;;;;;;23.82;66.27;96747.88;618734;229;66852;-71
2022/01/03 11:03:53;;;;;;;;;;;;;;;23.83;65.56;96744.88;618758;229;65132;-70
2022/01/03 11:06:24;;;;;;;;;;;;;;;23.82;66.02;96743.30;618541;229;64594;-74
2022/01/03 11:11:38;;;;;;;;;;;;;;;23.88;64.40;96739.42;618767;229;62862;-68
2022/01/03 11:14:06;;;;;;;;;;;;;;;23.95;65.14;96741.70;618744;229;67329;-71
2022/01/03 11:16:35;;;;;;;;;;;;;;;23.95;64.93;96741.70;618621;229;65516;-70
2022/01/03 11:19:01;;;;;;;;;;;;;;;;;;618764;229;64867;-70
2022/01/03 11:21:30;;;;;;;;;;;;;;;;;;618779;229;65902;-69
2022/01/03 11:24:01;;;;;;;;;;;;;;;23.89;66.35;96727.59;618744;229;67938;-71
2022/01/03 11:26:36;;;;;;;;;;;;;;;23.91;66.08;96719.25;618838;229;62704;-70
2022/01/03 11:29:04;;;;;;;;;;;;;;;23.92;65.96;96718.15;618744;229;67410;-70
2022/01/03 11:31:33;;;;;;;;;;;;;;;23.91;66.43;96720.05;618602;229;67032;-71
2022/01/03 11:34:01;;;;;;;;;;;;;;;23.91;66.46;96720.05;618689;229;63037;-71
2022/01/03 11:36:28;;;;;;;;;;;;;;;23.93;66.40;96725.13;618726;229;67472;-71
2022/01/03 11:38:57;;;;;;;;;;;;;;;23.92;66.62;96710.89;618686;229;64851;-70
2022/01/03 11:41:25;;;;;;;;;;;;;;;23.93;66.51;96717.08;618736;229;65020;-70
2022/01/03 11:43:53;;;;;;;;;;;;;;;23.92;66.91;96713.57;618683;229;67253;-70
2022/01/03 11:46:21;;;;;;;;;;;;;;;23.94;66.45;96710.60;618708;229;67072;-70
2022/01/03 11:48:50;;;;;;;;;;;;;;;23.96;66.63;96710.31;618605;229;64906;-70
2022/01/03 11:51:18;;;;;;;;;;;;;;;23.96;66.89;96708.42;618227;229;67196;-70
2022/01/03 11:53:47;;;;;;;;;;;;;;;23.97;67.30;96695.80;617662;229;67047;-69
2022/01/03 11:56:16;;;;;;;;;;;;;;;23.97;66.50;96685.85;617565;229;64995;-70
2022/01/03 11:58:58;;;;;;;;;;;;;;;23.98;66.75;96681.27;617357;228;67166;-70
2022/01/03 12:04:15;;;;;;;;;;;;;;;23.98;67.29;96682.09;617560;229;62811;-70
2022/01/03 12:06:43;;;;;;;;;;;;;;;24.00;66.80;96684.45;617547;229;67214;-70
2022/01/03 12:09:12;;;;;;;;;;;;;;;24.01;67.11;96691.41;617691;229;64619;-69
2022/01/03 12:11:53;;;;;;;;;;;;;;;24.01;66.67;96689.55;617635;229;65173;-69
2022/01/03 12:14:20;;;;;;;;;;;;;;;24.03;66.02;96687.33;617486;228;69965;-70
2022/01/03 12:16:56;;;;;;;;;;;;;;;24.05;67.04;96692.42;617643;229;66791;-69
2022/01/03 12:19:38;;;;;;;;;;;;;;;24.07;66.89;96696.40;617595;229;64945;-70
2022/01/03 12:22:12;;;;;;;;;;;;;;;24.07;66.66;96695.61;617613;229;67211;-69
2022/01/03 12:24:41;;;;;;;;;;;;;;;24.06;66.12;96686.77;617668;229;67347;-70
2022/01/03 12:27:13;;;;;;;;;;;;;;;24.09;66.11;96694.22;617654;229;64993;-69
2022/01/03 12:29:57;;;;;;;;;;;;;;;24.10;65.57;96693.11;617588;229;65165;-69
2022/01/03 12:32:26;;;;;;;;;;;;;;;24.12;66.20;96698.20;617522;229;67196;-69
2022/01/03 12:35:10;;;;;;;;;;;;;;;24.12;65.86;96698.98;617519;228;65036;-69
2022/01/03 12:37:39;;;;;;;;;;;;;;;24.13;65.77;96699.77;617626;229;67214;-68
2022/01/03 12:40:08;;;;;;;;;;;;;;;24.13;66.26;96691.72;617423;229;66799;-68
2022/01/03 12:42:44;;;;;;;;;;;;;;;24.14;65.48;96699.48;617335;229;65024;-68
2022/01/03 12:45:11;;;;;;;;;;;;;;;24.18;65.55;96709.63;617052;229;66757;-68
2022/01/03 12:47:39;;;;;;;;;;;;;;;24.16;65.92;96704.54;617606;229;66683;-68
2022/01/03 12:50:28;;;;;;;;;;;;;;;24.18;64.98;96699.67;617507;229;65217;-68
2022/01/03 12:52:54;;;;;;;;;;;;;;;24.18;65.82;96707.73;617589;227;65087;-67
2022/01/03 12:55:26;;;;;;;;;;;;;;;24.20;65.37;96702.05;617576;229;66993;-68
2022/01/03 12:57:54;;;;;;;;;;;;;;;24.19;65.48;96703.94;613990;229;62926;-70
2022/01/03 13:00:38;;;;;;;;;;;;;;;24.22;65.51;96707.92;617558;229;66916;-70
2022/01/03 13:03:22;;;;;;;;;;;;;;;24.22;64.81;96710.61;617537;229;66969;-69
2022/01/03 13:06:07;;;;;;;;;;;;;;;24.25;65.57;96718.06;617588;229;65282;-69
2022/01/03 13:08:42;;;;;;;;;;;;;;;24.24;64.75;96711.90;617551;229;67284;-69
2022/01/03 13:11:14;;;;;;;;;;;;;;;24.24;65.56;96717.27;617379;229;66836;-69
2022/01/03 13:13:42;;;;;;;;;;;;;;;24.23;64.75;96707.63;617032;229;65197;-69